Time;durP1;ratioP1;P1;durP2;ratioP2;P2;SDS_P1;SDS_P2;PMS_P1;PMS_P2;Temp;Humidity;BMP_temperature;BMP_pressure;BME280_temperature;BME280_humidity;BME280_pressure;Samples;Min_cycle;Max_cycle;Signal;HPM_P1;HPM_P2
2022/05/17 00:00:34;;;;;;;10.73;9.70;;;16.40;99.90;;;;;;2080955;28;20381;-71
2022/05/17 00:01:34;;;;;;;12.20;11.10;;;16.40;99.90;;;;;;2080735;28;20041;-71
2022/05/17 00:02:35;;;;;;;13.93;12.38;;;16.40;99.90;;;;;;2082922;28;20151;-71
2022/05/17 00:03:35;;;;;;;12.85;11.75;;;16.40;99.90;;;;;;2083436;28;20025;-71
2022/05/17 00:04:36;;;;;;;9.82;8.82;;;16.40;99.90;;;;;;2082424;28;20479;-71
2022/05/17 00:05:37;;;;;;;11.98;10.80;;;16.40;99.90;;;;;;2081298;28;20041;-71
2022/05/17 00:06:38;;;;;;;11.57;10.68;;;16.40;99.90;;;;;;2080874;28;20075;-71
2022/05/17 00:07:38;;;;;;;11.43;10.43;;;16.40;99.90;;;;;;2084235;28;20159;-71
2022/05/17 00:08:39;;;;;;;11.63;10.63;;;16.30;99.90;;;;;;2080418;28;20026;-71
2022/05/17 00:09:40;;;;;;;13.45;12.10;;;16.30;99.90;;;;;;2081079;28;20022;-71
2022/05/17 00:10:41;;;;;;;9.02;8.32;;;16.30;99.90;;;;;;2082862;28;20387;-71
2022/05/17 00:11:43;;;;;;;9.63;8.73;;;16.30;99.90;;;;;;2082451;28;20396;-70
2022/05/17 00:12:44;;;;;;;10.25;9.18;;;16.30;99.90;;;;;;2082817;28;20106;-71
2022/05/17 00:13:44;;;;;;;10.75;9.85;;;16.30;99.90;;;;;;2081993;28;20029;-71
2022/05/17 00:14:45;;;;;;;10.55;9.65;;;16.30;99.90;;;;;;2082161;28;20029;-71
2022/05/17 00:15:49;;;;;;;10.95;10.05;;;16.30;99.90;;;;;;2081044;28;20029;-71
2022/05/17 00:16:50;;;;;;;9.73;8.93;;;16.20;99.90;;;;;;2082671;28;20025;-71
2022/05/17 00:17:53;;;;;;;9.77;8.98;;;16.20;99.90;;;;;;2081116;28;20485;-71
2022/05/17 00:18:54;;;;;;;9.18;8.38;;;16.20;99.90;;;;;;2081008;28;20029;-71
2022/05/17 00:19:55;;;;;;;9.93;8.95;;;16.20;99.90;;;;;;2083334;28;20026;-71
2022/05/17 00:20:56;;;;;;;9.75;8.93;;;16.20;99.90;;;;;;2080446;28;20029;-71
2022/05/17 00:21:57;;;;;;;10.27;9.48;;;16.20;99.90;;;;;;2082102;28;20080;-71
2022/05/17 00:22:57;;;;;;;10.63;9.73;;;16.20;99.90;;;;;;2083087;28;20049;-71
2022/05/17 00:23:58;;;;;;;9.05;8.30;;;16.20;99.90;;;;;;2082599;28;20061;-71
2022/05/17 00:24:59;;;;;;;9.25;8.45;;;16.20;99.90;;;;;;2083416;28;20045;-71
2022/05/17 00:26:00;;;;;;;9.60;8.75;;;16.10;99.90;;;;;;2083545;28;20029;-71
2022/05/17 00:27:00;;;;;;;8.20;7.60;;;16.10;99.90;;;;;;2085306;28;20066;-71
2022/05/17 00:28:02;;;;;;;8.98;8.27;;;16.10;99.90;;;;;;2084771;28;20488;-71
2022/05/17 00:29:04;;;;;;;9.15;8.35;;;16.10;99.90;;;;;;2085294;28;20691;-71
2022/05/17 00:30:07;;;;;;;8.48;7.78;;;16.10;99.90;;;;;;2082495;28;20033;-71
2022/05/17 00:31:07;;;;;;;9.77;8.90;;;16.10;99.90;;;;;;2080288;28;20052;-71
2022/05/17 00:32:08;;;;;;;8.32;7.63;;;16.10;99.90;;;;;;2081127;28;20021;-71
2022/05/17 00:33:09;;;;;;;7.75;7.05;;;16.10;99.90;;;;;;2080362;28;20033;-71
2022/05/17 00:34:09;;;;;;;9.55;8.63;;;16.00;99.90;;;;;;2080800;28;20790;-71
2022/05/17 00:35:10;;;;;;;8.73;8.13;;;16.00;99.90;;;;;;2083304;28;20499;-71
2022/05/17 00:36:10;;;;;;;8.40;7.80;;;16.00;99.90;;;;;;2082942;28;20021;-71
2022/05/17 00:37:11;;;;;;;10.07;7.43;;;16.00;99.90;;;;;;2080671;28;20017;-71
2022/05/17 00:38:13;;;;;;;9.13;8.23;;;16.00;99.90;;;;;;2081026;28;20464;-71
2022/05/17 00:39:13;;;;;;;9.48;8.57;;;16.00;99.90;;;;;;2081693;28;20017;-71
2022/05/17 00:40:14;;;;;;;9.52;8.73;;;16.00;99.90;;;;;;2080159;28;20052;-71
2022/05/17 00:41:15;;;;;;;9.13;8.38;;;16.00;99.90;;;;;;2080961;28;20033;-71
2022/05/17 00:42:16;;;;;;;8.55;7.88;;;15.90;99.90;;;;;;2081565;28;20025;-71
2022/05/17 00:44:56;;;;;;;9.18;8.38;;;15.90;99.90;;;;;;2085411;28;20024;-71
2022/05/17 00:46:01;;;;;;;8.63;7.93;;;15.80;99.90;;;;;;2081644;28;20533;-71
2022/05/17 00:47:04;;;;;;;7.88;7.13;;;15.80;99.90;;;;;;2082394;28;20467;-71
2022/05/17 00:48:04;;;;;;;7.10;6.55;;;15.80;99.90;;;;;;2081187;28;20044;-71
2022/05/17 00:49:08;;;;;;;7.53;6.93;;;15.80;99.90;;;;;;2081579;28;20108;-71
2022/05/17 00:50:18;;;;;;;7.18;6.60;;;15.80;99.90;;;;;;2080510;28;20029;-71
2022/05/17 00:51:21;;;;;;;11.23;9.82;;;15.80;99.90;;;;;;2081405;28;20079;-71
2022/05/17 00:52:36;;;;;;;7.82;7.13;;;15.80;99.90;;;;;;2084946;28;20637;-71
2022/05/17 00:53:37;;;;;;;9.07;8.18;;;15.80;99.90;;;;;;2083160;28;20998;-71
2022/05/17 00:54:40;;;;;;;10.13;9.23;;;15.70;99.90;;;;;;2084481;28;20035;-71
2022/05/17 00:55:53;;;;;;;8.95;8.27;;;15.70;99.90;;;;;;2082180;28;20469;-71
2022/05/17 00:57:17;;;;;;;11.20;9.98;;;15.70;99.90;;;;;;2081794;28;20017;-71
2022/05/17 00:58:47;;;;;;;9.77;8.88;;;15.70;99.90;;;;;;2080516;28;20120;-71
2022/05/17 00:59:49;;;;;;;8.35;7.75;;;15.60;99.90;;;;;;2081667;28;20020;-71
2022/05/17 01:01:07;;;;;;;9.18;8.43;;;15.60;99.90;;;;;;2080762;28;20044;-70
2022/05/17 01:02:09;;;;;;;8.82;8.02;;;15.60;99.90;;;;;;2080858;28;20060;-70
2022/05/17 01:03:12;;;;;;;9.18;8.43;;;15.60;99.90;;;;;;2083422;28;20020;-70
2022/05/17 01:04:19;;;;;;;8.63;7.85;;;15.60;99.90;;;;;;2084419;28;20560;-70
2022/05/17 01:05:22;;;;;;;9.88;8.90;;;15.60;99.90;;;;;;2080400;28;20017;-70
2022/05/17 01:06:27;;;;;;;8.73;7.93;;;15.60;99.90;;;;;;2079124;28;20029;-70
2022/05/17 01:07:36;;;;;;;9.55;8.73;;;15.60;99.90;;;;;;2081822;28;20099;-70
2022/05/17 01:08:37;;;;;;;10.23;9.40;;;15.60;99.90;;;;;;2082236;28;20078;-70
2022/05/17 01:09:37;;;;;;;7.10;6.40;;;15.60;99.90;;;;;;2083597;28;20030;-70
2022/05/17 01:10:38;;;;;;;8.80;8.10;;;15.60;99.90;;;;;;2082344;28;20039;-70
2022/05/17 01:11:40;;;;;;;8.25;7.65;;;15.60;99.90;;;;;;2081714;28;20021;-70
2022/05/17 01:12:41;;;;;;;8.90;8.07;;;15.50;99.90;;;;;;2081602;28;20033;-70
2022/05/17 01:15:02;;;;;;;10.27;9.33;;;15.50;99.90;;;;;;2080830;28;20501;-70
2022/05/17 01:16:03;;;;;;;8.15;7.47;;;15.50;99.90;;;;;;2082734;28;20033;-70
2022/05/17 01:17:04;;;;;;;9.68;8.75;;;15.50;99.90;;;;;;2081416;28;20094;-70
2022/05/17 01:18:05;;;;;;;8.85;8.18;;;15.50;99.90;;;;;;2081001;28;20036;-70
2022/05/17 01:19:08;;;;;;;11.10;9.38;;;15.50;99.90;;;;;;2079613;28;20025;-70
2022/05/17 01:20:13;;;;;;;8.07;7.47;;;15.50;99.90;;;;;;2080953;28;20520;-70
2022/05/17 01:21:13;;;;;;;9.32;8.55;;;15.50;99.90;;;;;;2079842;28;20060;-70
2022/05/17 01:22:14;;;;;;;10.52;9.57;;;15.50;99.90;;;;;;2080950;28;20018;-70
2022/05/17 01:23:14;;;;;;;8.50;7.57;;;15.40;99.90;;;;;;2083166;28;20109;-70
2022/05/17 01:24:15;;;;;;;8.35;7.57;;;15.40;99.90;;;;;;2081451;28;20013;-70
2022/05/17 01:25:16;;;;;;;6.82;6.28;;;15.40;99.90;;;;;;2078508;28;20029;-70
2022/05/17 01:26:21;;;;;;;7.85;7.22;;;15.40;99.90;;;;;;2082193;28;20025;-70
2022/05/17 01:27:45;;;;;;;7.72;7.13;;;15.40;99.90;;;;;;2085265;28;20798;-70
2022/05/17 01:28:47;;;;;;;7.90;7.20;;;15.40;99.90;;;;;;2080448;28;20052;-70
2022/05/17 01:29:49;;;;;;;8.20;7.53;;;15.40;99.90;;;;;;2082542;28;20044;-70
2022/05/17 01:30:50;;;;;;;9.77;8.70;;;15.40;99.90;;;;;;2081666;28;20024;-70
2022/05/17 01:31:51;;;;;;;10.02;8.98;;;15.40;99.90;;;;;;2073770;28;20635;-70
2022/05/17 01:32:52;;;;;;;8.95;8.02;;;15.30;99.90;;;;;;2079381;28;20028;-70
2022/05/17 01:33:52;;;;;;;7.82;6.68;;;15.30;99.90;;;;;;2082348;28;20021;-70
2022/05/17 01:34:53;;;;;;;6.10;5.53;;;15.30;99.90;;;;;;2080632;28;20056;-70
2022/05/17 01:35:53;;;;;;;9.05;8.25;;;15.30;99.90;;;;;;2079415;28;20052;-70
2022/05/17 01:36:54;;;;;;;9.15;8.38;;;15.30;99.90;;;;;;2081884;28;20021;-70
2022/05/17 01:37:56;;;;;;;10.45;9.27;;;15.30;99.90;;;;;;2080751;28;20014;-70
2022/05/17 01:38:56;;;;;;;9.73;8.73;;;15.30;99.90;;;;;;2080604;28;20025;-70
2022/05/17 01:39:57;;;;;;;9.18;8.35;;;15.30;99.90;;;;;;2081049;28;20054;-70
2022/05/17 01:40:58;;;;;;;9.00;8.10;;;15.30;99.90;;;;;;2080809;28;20104;-70
2022/05/17 01:41:59;;;;;;;10.93;9.68;;;15.30;99.90;;;;;;2083761;28;20025;-70
2022/05/17 01:42:59;;;;;;;9.77;8.80;;;15.30;99.90;;;;;;2084206;28;20041;-70
2022/05/17 01:44:00;;;;;;;9.43;8.35;;;15.30;99.90;;;;;;2081149;28;20061;-70
2022/05/17 01:45:01;;;;;;;8.65;7.95;;;15.30;99.90;;;;;;2081585;28;20037;-70
2022/05/17 01:46:06;;;;;;;9.70;8.82;;;15.30;99.90;;;;;;2081445;28;20036;-70
2022/05/17 01:47:07;;;;;;;7.18;6.60;;;15.30;99.90;;;;;;2081596;28;20061;-70
2022/05/17 01:48:08;;;;;;;7.75;7.05;;;15.20;99.90;;;;;;2082225;28;20029;-70
2022/05/17 01:49:09;;;;;;;10.38;9.27;;;15.20;99.90;;;;;;2081680;28;20052;-70
2022/05/17 01:50:09;;;;;;;10.70;8.25;;;15.20;99.90;;;;;;2081793;28;20033;-70
2022/05/17 01:51:11;;;;;;;9.50;8.70;;;15.20;99.90;;;;;;2079511;28;20033;-70
2022/05/17 01:52:11;;;;;;;10.00;8.95;;;15.20;99.90;;;;;;2080079;28;20057;-70
2022/05/17 01:53:12;;;;;;;11.15;10.10;;;15.20;99.90;;;;;;2081023;28;20033;-70
2022/05/17 01:54:12;;;;;;;10.02;9.02;;;15.20;99.90;;;;;;2082530;28;20025;-71
2022/05/17 01:55:13;;;;;;;9.27;8.48;;;15.20;99.90;;;;;;2082207;28;20557;-70
2022/05/17 01:56:14;;;;;;;8.77;7.90;;;15.20;99.90;;;;;;2080066;28;20076;-70
2022/05/17 01:57:14;;;;;;;9.27;8.50;;;15.20;99.90;;;;;;2080980;28;20063;-71
2022/05/17 01:58:15;;;;;;;8.73;8.00;;;15.20;99.90;;;;;;2080956;28;20033;-71
2022/05/17 01:59:16;;;;;;;7.82;7.10;;;15.20;99.90;;;;;;2081393;28;20052;-71
2022/05/17 02:00:18;;;;;;;8.68;7.53;;;15.20;99.90;;;;;;2078879;28;20537;-70
2022/05/17 02:01:19;;;;;;;6.80;6.30;;;15.20;99.90;;;;;;2080462;28;20020;-71
2022/05/17 02:02:19;;;;;;;7.88;7.18;;;15.20;99.90;;;;;;2081884;28;20036;-71
2022/05/17 02:03:20;;;;;;;10.18;8.77;;;15.10;99.90;;;;;;2083235;28;20152;-71
2022/05/17 02:04:20;;;;;;;10.60;9.70;;;15.10;99.90;;;;;;2081061;28;20040;-71
2022/05/17 02:05:24;;;;;;;11.18;10.05;;;15.10;99.90;;;;;;2082860;28;20033;-71
2022/05/17 02:06:25;;;;;;;9.48;8.55;;;15.10;99.90;;;;;;2081475;28;20354;-71
2022/05/17 02:07:25;;;;;;;9.80;8.80;;;15.10;99.90;;;;;;2084418;28;20075;-71
2022/05/17 02:08:26;;;;;;;11.05;10.00;;;15.10;99.90;;;;;;2081401;28;20097;-70
2022/05/17 02:09:27;;;;;;;11.50;10.57;;;15.10;99.90;;;;;;2080793;28;20096;-70
2022/05/17 02:10:27;;;;;;;10.88;9.85;;;15.10;99.90;;;;;;2082069;28;20404;-70
2022/05/17 02:11:28;;;;;;;12.43;11.20;;;15.10;99.90;;;;;;2080573;28;20358;-70
2022/05/17 02:12:29;;;;;;;11.18;10.18;;;15.10;99.90;;;;;;2080432;28;20389;-70
2022/05/17 02:13:29;;;;;;;12.90;11.23;;;15.10;99.90;;;;;;2081544;28;20667;-70
2022/05/17 02:14:30;;;;;;;11.35;10.32;;;15.10;99.90;;;;;;2079983;28;20022;-71
2022/05/17 02:15:31;;;;;;;14.73;12.73;;;15.10;99.90;;;;;;2081830;28;20014;-71
2022/05/17 02:16:37;;;;;;;11.90;10.90;;;15.10;99.90;;;;;;2080533;28;20018;-70
2022/05/17 02:17:38;;;;;;;13.23;11.77;;;15.20;99.90;;;;;;2080533;28;20483;-70
2022/05/17 02:18:38;;;;;;;13.27;11.98;;;15.10;99.90;;;;;;2084396;28;20377;-70
2022/05/17 02:19:40;;;;;;;10.70;9.73;;;15.10;99.90;;;;;;2081371;28;20017;-71
2022/05/17 02:20:40;;;;;;;12.63;11.02;;;15.10;99.90;;;;;;2082400;28;20160;-71
2022/05/17 02:21:41;;;;;;;13.55;11.55;;;15.20;99.90;;;;;;2083745;28;20066;-70
2022/05/17 02:22:41;;;;;;;11.35;10.35;;;15.20;99.90;;;;;;2085362;28;20017;-70
2022/05/17 02:23:42;;;;;;;12.85;11.55;;;15.10;99.90;;;;;;2083156;28;20040;-70
2022/05/17 02:24:43;;;;;;;12.57;10.48;;;15.10;99.90;;;;;;2081339;28;20022;-70
2022/05/17 02:25:43;;;;;;;13.00;11.90;;;15.10;99.90;;;;;;2084545;28;20024;-71
2022/05/17 02:26:44;;;;;;;13.30;11.90;;;15.10;99.90;;;;;;2082362;28;20488;-71
2022/05/17 02:27:44;;;;;;;17.27;11.70;;;15.10;99.90;;;;;;2082174;28;20064;-71
2022/05/17 02:28:45;;;;;;;12.48;11.38;;;15.10;99.90;;;;;;2086964;28;20112;-71
2022/05/17 02:29:45;;;;;;;12.95;11.63;;;15.20;99.90;;;;;;2083028;28;20021;-71
2022/05/17 02:30:46;;;;;;;10.80;9.80;;;15.10;99.90;;;;;;2082101;28;20416;-70
2022/05/17 02:31:47;;;;;;;11.10;10.07;;;15.10;99.90;;;;;;2083337;28;20056;-70
2022/05/17 02:32:47;;;;;;;12.45;11.00;;;15.10;99.90;;;;;;2082413;28;20100;-70
2022/05/17 02:33:48;;;;;;;11.68;10.48;;;15.10;99.90;;;;;;2083871;28;20120;-70
2022/05/17 02:34:48;;;;;;;11.73;10.52;;;15.10;99.90;;;;;;2084274;28;20025;-70
2022/05/17 02:35:49;;;;;;;10.68;9.57;;;15.10;99.90;;;;;;2081440;28;20021;-71
2022/05/17 02:36:50;;;;;;;13.55;12.25;;;15.10;99.90;;;;;;2085744;28;20021;-71
2022/05/17 02:37:50;;;;;;;16.33;11.07;;;15.10;99.90;;;;;;2085174;28;20017;-71
2022/05/17 02:38:51;;;;;;;10.93;9.93;;;15.10;99.90;;;;;;2082791;28;20448;-71
2022/05/17 02:39:51;;;;;;;8.70;7.90;;;15.10;99.90;;;;;;2083989;28;20021;-71
2022/05/17 02:40:52;;;;;;;9.55;8.57;;;15.10;99.90;;;;;;2082280;28;20681;-71
2022/05/17 02:41:52;;;;;;;10.68;9.50;;;15.10;99.90;;;;;;2082940;28;20072;-71
2022/05/17 02:42:53;;;;;;;9.98;8.98;;;15.10;99.90;;;;;;2082686;28;20022;-71
2022/05/17 02:43:53;;;;;;;10.63;9.55;;;15.10;99.90;;;;;;2082936;28;20055;-71
2022/05/17 02:44:54;;;;;;;11.23;10.00;;;15.10;99.90;;;;;;2083654;28;20140;-71
2022/05/17 02:45:55;;;;;;;11.90;10.57;;;15.10;99.90;;;;;;2083503;28;20021;-71
2022/05/17 02:46:57;;;;;;;9.93;9.00;;;15.10;99.90;;;;;;2083937;28;20107;-71
2022/05/17 02:47:58;;;;;;;8.73;8.02;;;15.10;99.90;;;;;;2082257;28;20052;-70
2022/05/17 02:49:01;;;;;;;9.65;8.82;;;15.00;99.90;;;;;;2085769;28;20511;-71
2022/05/17 02:50:02;;;;;;;9.68;8.73;;;15.10;99.90;;;;;;2087574;28;20028;-71
2022/05/17 02:51:09;;;;;;;9.55;8.75;;;15.00;99.90;;;;;;2083685;28;20060;-71
2022/05/17 02:52:11;;;;;;;12.30;10.57;;;15.00;99.90;;;;;;2081961;28;20733;-71
2022/05/17 02:53:11;;;;;;;11.10;10.05;;;15.00;99.90;;;;;;2081460;28;20056;-70
2022/05/17 02:54:12;;;;;;;11.25;10.10;;;15.00;99.90;;;;;;2084344;28;20028;-71
2022/05/17 02:55:13;;;;;;;10.93;9.77;;;15.00;99.90;;;;;;2081982;28;20158;-71
2022/05/17 02:56:13;;;;;;;11.90;10.80;;;15.00;99.90;;;;;;2081953;28;20037;-70
2022/05/17 02:57:14;;;;;;;10.93;9.30;;;15.00;99.90;;;;;;2082927;28;20017;-70
2022/05/17 02:58:14;;;;;;;11.23;9.25;;;15.00;99.90;;;;;;2082650;28;20025;-70
2022/05/17 02:59:18;;;;;;;10.70;9.60;;;15.00;99.90;;;;;;2082561;28;20025;-70
2022/05/17 03:00:19;;;;;;;10.88;9.82;;;15.00;99.90;;;;;;2081925;28;20026;-70
2022/05/17 03:01:19;;;;;;;8.45;7.70;;;15.00;99.90;;;;;;2081684;28;20029;-70
2022/05/17 03:02:20;;;;;;;9.57;8.02;;;15.00;99.90;;;;;;2084903;28;20034;-70
2022/05/17 03:03:20;;;;;;;8.27;7.68;;;15.00;99.90;;;;;;2080491;28;20021;-70
2022/05/17 03:04:21;;;;;;;8.93;8.13;;;15.00;99.90;;;;;;2083491;28;20559;-70
2022/05/17 03:05:22;;;;;;;9.13;8.32;;;15.00;99.90;;;;;;2081870;28;20031;-70
2022/05/17 03:06:22;;;;;;;8.77;7.88;;;15.00;99.90;;;;;;2085424;28;20095;-70
2022/05/17 03:07:23;;;;;;;8.77;7.93;;;15.00;99.90;;;;;;2084763;28;20025;-71
2022/05/17 03:08:23;;;;;;;8.60;7.90;;;15.00;99.90;;;;;;2081965;28;20022;-71
2022/05/17 03:09:24;;;;;;;10.38;8.77;;;15.00;99.90;;;;;;2084114;28;20060;-71
2022/05/17 03:10:26;;;;;;;8.90;8.10;;;15.00;99.90;;;;;;2083500;28;20128;-71
2022/05/17 03:11:27;;;;;;;8.93;8.13;;;15.00;99.90;;;;;;2081076;28;20501;-70
2022/05/17 03:12:27;;;;;;;10.43;9.00;;;14.90;99.90;;;;;;2083094;28;20528;-70
2022/05/17 03:13:28;;;;;;;7.65;6.95;;;15.00;99.90;;;;;;2083085;28;20455;-70
2022/05/17 03:14:29;;;;;;;9.50;8.48;;;14.90;99.90;;;;;;2085065;28;20143;-71
2022/05/17 03:15:30;;;;;;;9.55;8.55;;;15.00;99.90;;;;;;2085199;28;20480;-70
2022/05/17 03:16:31;;;;;;;11.15;10.05;;;14.90;99.90;;;;;;2081802;28;20094;-70
2022/05/17 03:17:32;;;;;;;10.32;9.30;;;14.90;99.90;;;;;;2083144;28;20473;-70
2022/05/17 03:18:33;;;;;;;11.10;9.38;;;15.00;99.90;;;;;;2083710;28;20755;-70
2022/05/17 03:19:34;;;;;;;11.23;10.13;;;14.90;99.90;;;;;;2083089;28;20052;-71
2022/05/17 03:20:34;;;;;;;9.20;8.23;;;14.90;99.90;;;;;;2082607;28;20022;-71
2022/05/17 03:21:35;;;;;;;10.60;9.48;;;14.90;99.90;;;;;;2081989;28;20112;-71
2022/05/17 03:22:36;;;;;;;8.05;7.25;;;15.00;99.90;;;;;;2084683;28;20474;-71
2022/05/17 03:23:36;;;;;;;9.43;8.45;;;14.90;99.90;;;;;;2083405;28;20029;-71
2022/05/17 03:24:38;;;;;;;9.18;8.27;;;14.90;99.90;;;;;;2082730;28;20017;-70
2022/05/17 03:25:38;;;;;;;10.05;9.25;;;15.00;99.90;;;;;;2083049;28;20058;-71
2022/05/17 03:26:40;;;;;;;10.38;9.48;;;15.00;99.90;;;;;;2081743;28;20021;-71
2022/05/17 03:27:41;;;;;;;9.75;7.93;;;14.90;99.90;;;;;;2080927;28;20037;-71
2022/05/17 03:28:41;;;;;;;7.95;7.32;;;14.90;99.90;;;;;;2080706;28;20033;-70
2022/05/17 03:29:42;;;;;;;8.85;8.07;;;14.90;99.90;;;;;;2083190;28;20029;-70
2022/05/17 03:30:43;;;;;;;10.52;9.50;;;15.00;99.90;;;;;;2082810;28;20489;-70
2022/05/17 03:31:43;;;;;;;8.98;7.72;;;14.90;99.90;;;;;;2083626;28;20383;-70
2022/05/17 03:32:44;;;;;;;8.95;8.25;;;15.00;99.90;;;;;;2081173;28;20031;-70
2022/05/17 03:33:44;;;;;;;10.57;9.48;;;14.90;99.90;;;;;;2083450;28;20033;-71
2022/05/17 03:34:45;;;;;;;9.32;8.43;;;15.00;99.90;;;;;;2081546;28;20082;-71
2022/05/17 03:35:45;;;;;;;8.70;7.78;;;14.90;99.90;;;;;;2083075;28;20021;-71
2022/05/17 03:36:46;;;;;;;9.93;7.93;;;15.00;99.90;;;;;;2083977;28;20048;-71
2022/05/17 03:37:46;;;;;;;10.50;9.25;;;14.90;99.90;;;;;;2082980;28;20036;-71
2022/05/17 03:38:47;;;;;;;10.20;9.23;;;14.90;99.90;;;;;;2085403;28;20021;-71
2022/05/17 03:39:48;;;;;;;11.43;9.95;;;14.90;99.90;;;;;;2082618;28;20017;-71
2022/05/17 03:40:50;;;;;;;10.90;9.85;;;14.90;99.90;;;;;;2081406;28;20684;-71
2022/05/17 03:41:50;;;;;;;10.32;9.30;;;14.90;99.90;;;;;;2083811;28;20028;-71
2022/05/17 03:42:51;;;;;;;8.90;8.10;;;14.90;99.90;;;;;;2082734;28;20040;-71
2022/05/17 03:43:52;;;;;;;8.93;6.90;;;14.90;99.90;;;;;;2085842;28;20798;-71
2022/05/17 03:44:52;;;;;;;7.88;7.10;;;14.90;99.90;;;;;;2086476;28;20106;-71
2022/05/17 03:45:54;;;;;;;8.75;7.85;;;14.90;99.90;;;;;;2082533;28;20022;-71
2022/05/17 03:46:54;;;;;;;8.88;7.82;;;15.00;99.90;;;;;;2086597;28;20028;-71
2022/05/17 03:47:55;;;;;;;10.73;8.93;;;14.90;99.90;;;;;;2083412;28;20025;-71
2022/05/17 03:48:55;;;;;;;8.88;7.97;;;14.90;99.90;;;;;;2081745;28;20032;-71
2022/05/17 03:49:56;;;;;;;9.35;8.45;;;15.00;99.90;;;;;;2082025;28;20036;-71
2022/05/17 03:50:57;;;;;;;10.77;9.68;;;14.90;99.90;;;;;;2083976;28;20080;-70
2022/05/17 03:51:57;;;;;;;11.70;10.60;;;14.90;99.90;;;;;;2082485;28;20159;-70
2022/05/17 03:53:01;;;;;;;10.60;9.50;;;15.00;99.90;;;;;;2081408;28;20036;-71
2022/05/17 03:54:01;;;;;;;10.45;9.35;;;14.90;99.90;;;;;;2084746;28;20035;-71
2022/05/17 03:55:04;;;;;;;11.15;10.05;;;15.00;99.90;;;;;;2081358;28;20025;-71
2022/05/17 03:56:05;;;;;;;11.18;10.02;;;15.00;99.90;;;;;;2081580;28;20124;-70
2022/05/17 03:57:06;;;;;;;10.98;9.88;;;15.00;99.90;;;;;;2081647;28;20021;-71
2022/05/17 03:58:07;;;;;;;11.50;10.23;;;15.00;99.90;;;;;;2083682;28;20041;-71
2022/05/17 03:59:08;;;;;;;13.65;9.77;;;15.00;99.90;;;;;;2083928;28;20047;-71
2022/05/17 04:00:10;;;;;;;11.07;9.57;;;15.00;99.90;;;;;;2082362;28;20013;-71
2022/05/17 04:01:12;;;;;;;10.00;9.20;;;15.10;99.90;;;;;;2083164;28;20017;-71
2022/05/17 04:02:12;;;;;;;10.13;8.98;;;15.00;99.90;;;;;;2081433;28;20492;-70
2022/05/17 04:03:13;;;;;;;10.10;8.98;;;15.00;99.90;;;;;;2081266;28;20359;-70
2022/05/17 04:04:13;;;;;;;10.10;9.10;;;15.10;99.90;;;;;;2082123;28;20021;-70
2022/05/17 04:05:14;;;;;;;11.23;8.13;;;15.10;99.90;;;;;;2080783;28;20030;-70
2022/05/17 04:06:15;;;;;;;9.77;8.90;;;15.10;99.90;;;;;;2081762;28;20021;-70
2022/05/17 04:07:15;;;;;;;14.18;8.38;;;15.10;99.90;;;;;;2081392;28;20392;-70
2022/05/17 04:08:16;;;;;;;10.30;9.07;;;15.10;99.90;;;;;;2081522;28;20475;-70
2022/05/17 04:09:16;;;;;;;10.38;9.27;;;15.10;99.90;;;;;;2080716;28;20040;-71
2022/05/17 04:10:17;;;;;;;12.48;9.93;;;15.10;99.90;;;;;;2082808;28;20030;-71
2022/05/17 04:11:18;;;;;;;10.32;9.07;;;15.10;99.90;;;;;;2083727;28;20049;-71
2022/05/17 04:12:19;;;;;;;10.18;9.23;;;15.10;99.90;;;;;;2084249;28;20432;-71
2022/05/17 04:13:20;;;;;;;10.52;9.35;;;15.20;99.90;;;;;;2082524;28;20030;-71
2022/05/17 04:14:20;;;;;;;11.40;10.30;;;15.20;99.90;;;;;;2082651;28;20481;-71
2022/05/17 04:15:22;;;;;;;11.93;10.73;;;15.20;99.90;;;;;;2080163;28;20457;-70
2022/05/17 04:16:23;;;;;;;13.77;11.57;;;15.20;99.90;;;;;;2083387;28;20024;-70
2022/05/17 04:17:24;;;;;;;13.43;11.90;;;15.20;99.90;;;;;;2082316;28;20049;-70
2022/05/17 04:18:25;;;;;;;11.73;10.45;;;15.30;99.90;;;;;;2082333;28;20017;-70
2022/05/17 04:19:26;;;;;;;12.52;11.32;;;15.30;99.90;;;;;;2081722;28;20299;-71
2022/05/17 04:20:27;;;;;;;12.23;10.73;;;15.30;99.90;;;;;;2083799;28;20570;-71
2022/05/17 04:21:30;;;;;;;11.95;10.73;;;15.30;99.90;;;;;;2081517;28;20492;-71
2022/05/17 04:22:31;;;;;;;10.73;9.52;;;15.30;99.90;;;;;;2081396;28;20018;-71
2022/05/17 04:23:32;;;;;;;11.50;10.30;;;15.30;99.90;;;;;;2081651;28;20053;-71
2022/05/17 04:24:33;;;;;;;14.43;11.50;;;15.40;99.90;;;;;;2082811;28;20021;-71
2022/05/17 04:25:33;;;;;;;12.10;10.93;;;15.30;99.90;;;;;;2083222;28;20021;-71
2022/05/17 04:26:34;;;;;;;13.30;10.75;;;15.40;99.90;;;;;;2083113;28;20024;-71
2022/05/17 04:27:35;;;;;;;11.73;10.02;;;15.40;99.90;;;;;;2081740;28;20416;-71
2022/05/17 04:28:37;;;;;;;13.63;10.30;;;15.40;99.90;;;;;;2083238;28;20503;-71
2022/05/17 04:29:37;;;;;;;11.00;9.38;;;15.50;99.90;;;;;;2083197;28;20516;-71
2022/05/17 04:30:38;;;;;;;12.45;10.65;;;15.50;99.90;;;;;;2080864;28;20465;-71
2022/05/17 04:31:38;;;;;;;11.77;10.45;;;15.50;99.90;;;;;;2084125;28;20056;-71
2022/05/17 04:32:39;;;;;;;12.10;10.43;;;15.50;99.90;;;;;;2081315;28;20018;-71
2022/05/17 04:33:39;;;;;;;11.07;10.00;;;15.50;99.90;;;;;;2084341;28;20087;-71
2022/05/17 04:34:40;;;;;;;15.35;11.23;;;15.50;99.90;;;;;;2081275;28;20033;-71
2022/05/17 04:35:41;;;;;;;11.75;10.50;;;15.60;99.90;;;;;;2080871;28;20040;-71
2022/05/17 04:36:42;;;;;;;14.77;11.05;;;15.60;99.90;;;;;;2082591;28;20067;-71
2022/05/17 04:37:43;;;;;;;10.88;9.88;;;15.60;99.90;;;;;;2084060;28;20028;-70
2022/05/17 04:38:43;;;;;;;11.82;10.27;;;15.60;99.90;;;;;;2084758;28;20104;-70
2022/05/17 04:39:44;;;;;;;13.27;10.52;;;15.60;99.90;;;;;;2081634;28;20028;-70
2022/05/17 04:40:44;;;;;;;13.05;10.02;;;15.60;99.90;;;;;;2080210;28;20025;-70
2022/05/17 04:41:45;;;;;;;12.82;10.52;;;15.70;99.90;;;;;;2081541;28;20148;-70
2022/05/17 04:42:47;;;;;;;11.98;9.95;;;15.70;99.90;;;;;;2083355;28;20055;-70
2022/05/17 04:43:48;;;;;;;12.27;11.18;;;15.70;99.90;;;;;;2081893;28;20025;-70
2022/05/17 04:44:48;;;;;;;10.23;9.23;;;15.70;99.90;;;;;;2081122;28;20519;-70
2022/05/17 04:45:49;;;;;;;11.13;10.00;;;15.70;99.90;;;;;;2081468;28;20025;-70
2022/05/17 04:46:49;;;;;;;15.15;10.68;;;15.80;99.90;;;;;;2082584;28;20052;-71
2022/05/17 04:47:50;;;;;;;13.85;11.13;;;15.80;99.90;;;;;;2082525;28;20029;-71
2022/05/17 04:48:50;;;;;;;13.07;11.65;;;15.80;99.90;;;;;;2084668;28;20025;-71
2022/05/17 04:49:51;;;;;;;13.35;11.30;;;15.80;99.90;;;;;;2082751;28;20783;-71
2022/05/17 04:50:52;;;;;;;13.75;11.55;;;15.80;99.90;;;;;;2082598;28;20033;-71
2022/05/17 04:51:53;;;;;;;11.63;10.05;;;15.90;99.90;;;;;;2082337;28;20041;-71
2022/05/17 04:52:54;;;;;;;11.82;10.63;;;15.90;99.90;;;;;;2081460;28;20100;-70
2022/05/17 04:53:54;;;;;;;11.93;9.48;;;15.90;99.90;;;;;;2080677;28;20148;-70
2022/05/17 04:54:55;;;;;;;12.55;9.32;;;15.90;99.90;;;;;;2085038;28;20500;-70
2022/05/17 04:55:55;;;;;;;11.60;10.43;;;16.00;99.90;;;;;;2082172;28;20498;-70
2022/05/17 04:56:56;;;;;;;9.95;9.10;;;16.00;99.90;;;;;;2081579;28;20053;-70
2022/05/17 04:57:56;;;;;;;12.23;10.13;;;16.00;99.90;;;;;;2083119;28;20033;-70
2022/05/17 04:58:57;;;;;;;9.77;8.88;;;16.00;99.90;;;;;;2086986;28;20172;-70
2022/05/17 04:59:59;;;;;;;12.05;10.85;;;16.10;99.90;;;;;;2082669;28;20018;-70
2022/05/17 05:01:00;;;;;;;12.07;10.63;;;16.10;99.90;;;;;;2080867;28;20124;-71
2022/05/17 05:02:01;;;;;;;12.18;10.48;;;16.10;99.90;;;;;;2084832;28;20509;-71
2022/05/17 05:03:02;;;;;;;11.50;10.20;;;16.20;99.90;;;;;;2082109;28;20516;-71
2022/05/17 05:04:03;;;;;;;12.98;10.50;;;16.20;99.90;;;;;;2082078;28;20535;-70
2022/05/17 05:05:05;;;;;;;11.68;10.48;;;16.20;99.90;;;;;;2081927;28;20592;-70
2022/05/17 05:06:05;;;;;;;13.27;10.57;;;16.30;99.90;;;;;;2080760;28;20486;-70
2022/05/17 05:07:06;;;;;;;11.00;10.00;;;16.30;99.90;;;;;;2084039;28;20037;-70
2022/05/17 05:08:07;;;;;;;12.45;11.15;;;16.30;99.90;;;;;;2079700;28;20055;-70
2022/05/17 05:09:07;;;;;;;12.93;9.95;;;16.30;99.90;;;;;;2080183;28;20022;-70
2022/05/17 05:10:09;;;;;;;11.52;9.70;;;16.40;99.90;;;;;;2080257;28;20384;-70
2022/05/17 05:11:09;;;;;;;14.88;11.45;;;16.40;99.90;;;;;;2083723;28;20040;-70
2022/05/17 05:12:10;;;;;;;13.32;11.55;;;16.40;99.90;;;;;;2082871;28;20037;-70
2022/05/17 05:13:14;;;;;;;13.32;11.13;;;16.50;99.90;;;;;;2079593;28;20041;-70
2022/05/17 05:14:15;;;;;;;15.73;11.60;;;16.50;99.90;;;;;;2081001;28;20602;-70
2022/05/17 05:15:16;;;;;;;13.52;10.93;;;16.60;99.90;;;;;;2081232;28;20411;-70
2022/05/17 05:16:17;;;;;;;12.02;10.00;;;16.60;99.90;;;;;;2082816;28;20528;-70
2022/05/17 05:17:17;;;;;;;13.35;9.55;;;16.60;99.90;;;;;;2083113;28;20377;-70
2022/05/17 05:18:18;;;;;;;11.88;9.75;;;16.70;99.90;;;;;;2081357;28;20079;-70
2022/05/17 05:19:19;;;;;;;11.00;10.00;;;16.70;99.90;;;;;;2081605;28;20029;-70